TUA801 UTAA-WMKK
Flight info
| Callsign | TUA801 |
|---|---|
| Flight time | 6h 40m |
| Altitude | 35000 |
| Route | KEM29D KEMOR B449 RANAH L750 ZB G201 BINDO L750 MERUN L333 JJP J1 KKJ L759 PUT B579 VPL Y503 RINBA Y507 KAKAK |
| Aircraft | B77L/H-SDE1E2E3FGHIJ2J3J4J5M1RWXY/LB1D1 |
Departure
| Time | 2026-04-24 13:58 |
|---|---|
| Airport | Ashgabat International Airport (UTAA) |
Arrival
| Time | 2026-04-24 20:38 |
|---|---|
| Airport | Kuala Lumpur International Airport (WMKK) |
| Time | Latitude | Longitude | Altitude | Speed | Heading |
|---|---|---|---|---|---|
| 2026-04-24 13:34 | 37.98414 | 58.36925 | 706 ft | 0 kts | 210° |
| 2026-04-24 13:44 | 37.98418 | 58.36928 | 706 ft | 3 kts | 210° |
| 2026-04-24 13:45 | 37.98434 | 58.36940 | 694 ft | 3 kts | 210° |
| 2026-04-24 13:45 | 37.98450 | 58.36952 | 698 ft | 3 kts | 210° |
| 2026-04-24 13:45 | 37.98467 | 58.36963 | 695 ft | 3 kts | 210° |
| 2026-04-24 13:45 | 37.98483 | 58.36975 | 695 ft | 3 kts | 210° |
| 2026-04-24 13:46 | 37.98499 | 58.36987 | 695 ft | 3 kts | 210° |
| 2026-04-24 13:46 | 37.98516 | 58.36999 | 695 ft | 3 kts | 210° |
| 2026-04-24 13:46 | 37.98519 | 58.37001 | 695 ft | 0 kts | 210° |
| 2026-04-24 13:52 | 37.98518 | 58.37001 | 695 ft | 1 kts | 204° |
| 2026-04-24 13:52 | 37.98512 | 58.37003 | 695 ft | 1 kts | 174° |
| 2026-04-24 13:52 | 37.98503 | 58.37011 | 695 ft | 3 kts | 149° |
| 2026-04-24 13:53 | 37.98482 | 58.37039 | 698 ft | 6 kts | 126° |
| 2026-04-24 13:53 | 37.98454 | 58.37098 | 701 ft | 9 kts | 120° |
| 2026-04-24 13:53 | 37.98417 | 58.37182 | 698 ft | 12 kts | 119° |
| 2026-04-24 13:53 | 37.98373 | 58.37291 | 698 ft | 15 kts | 104° |
| 2026-04-24 13:54 | 37.98390 | 58.37430 | 701 ft | 17 kts | 76° |
| 2026-04-24 13:54 | 37.98370 | 58.37587 | 697 ft | 20 kts | 117° |
| 2026-04-24 13:54 | 37.98305 | 58.37740 | 694 ft | 20 kts | 118° |
| 2026-04-24 13:54 | 37.98262 | 58.37835 | 697 ft | 6 kts | 118° |
| 2026-04-24 13:55 | 37.98246 | 58.37881 | 698 ft | 6 kts | 112° |
| 2026-04-24 13:55 | 37.98238 | 58.37929 | 698 ft | 6 kts | 94° |
| 2026-04-24 13:55 | 37.98248 | 58.37978 | 699 ft | 6 kts | 63° |
| 2026-04-24 13:55 | 37.98283 | 58.38023 | 694 ft | 9 kts | 32° |
| 2026-04-24 13:56 | 37.98331 | 58.38054 | 690 ft | 5 kts | 26° |
| 2026-04-24 13:56 | 37.98365 | 58.38039 | 696 ft | 6 kts | 318° |
| 2026-04-24 13:56 | 37.98385 | 58.38001 | 692 ft | 0 kts | 300° |
| 2026-04-24 13:56 | 37.98385 | 58.38000 | 692 ft | 1 kts | 300° |
| 2026-04-24 13:57 | 37.98428 | 58.37902 | 692 ft | 32 kts | 300° |
| 2026-04-24 13:57 | 37.98668 | 58.37360 | 691 ft | 107 kts | 299° |
| 2026-04-24 13:57 | 37.99144 | 58.36286 | 692 ft | 170 kts | 299° |
| 2026-04-24 13:57 | 37.99774 | 58.34855 | 1050 ft | 191 kts | 299° |
| 2026-04-24 13:58 | 38.00450 | 58.33373 | 1603 ft | 198 kts | 300° |
| 2026-04-24 13:58 | 38.01140 | 58.31815 | 2107 ft | 204 kts | 300° |
| 2026-04-24 13:58 | 38.01852 | 58.30206 | 2495 ft | 212 kts | 300° |
| 2026-04-24 13:58 | 38.02579 | 58.28554 | 2757 ft | 221 kts | 300° |
| 2026-04-24 13:59 | 38.03468 | 58.26878 | 2958 ft | 233 kts | 317° |
| 2026-04-24 13:59 | 38.04888 | 58.25849 | 3185 ft | 244 kts | 347° |
| 2026-04-24 13:59 | 38.06560 | 58.25762 | 3724 ft | 239 kts | 10° |
| 2026-04-24 13:59 | 38.08181 | 58.26337 | 3966 ft | 253 kts | 25° |
| 2026-04-24 14:00 | 38.09694 | 58.27513 | 4294 ft | 260 kts | 47° |
| 2026-04-24 14:00 | 38.10589 | 58.29525 | 4625 ft | 266 kts | 78° |
| 2026-04-24 14:00 | 38.10656 | 58.31878 | 4989 ft | 274 kts | 99° |
| 2026-04-24 14:00 | 38.10269 | 58.34264 | 5453 ft | 277 kts | 106° |
| 2026-04-24 14:01 | 38.09741 | 58.36657 | 5930 ft | 283 kts | 107° |
| 2026-04-24 14:01 | 38.09186 | 58.39033 | 6549 ft | 284 kts | 108° |
| 2026-04-24 14:01 | 38.08623 | 58.41478 | 7027 ft | 290 kts | 108° |
| 2026-04-24 14:01 | 38.08059 | 58.43962 | 7533 ft | 296 kts | 108° |
| 2026-04-24 14:02 | 38.07510 | 58.46499 | 8088 ft | 298 kts | 108° |
| 2026-04-24 14:02 | 38.06949 | 58.49053 | 8636 ft | 300 kts | 108° |
| 2026-04-24 14:02 | 38.06377 | 58.51632 | 9103 ft | 307 kts | 108° |
| 2026-04-24 14:02 | 38.05814 | 58.54249 | 9576 ft | 314 kts | 108° |
| 2026-04-24 14:03 | 38.05263 | 58.56927 | 10139 ft | 313 kts | 107° |
| 2026-04-24 14:03 | 38.04699 | 58.59683 | 10258 ft | 334 kts | 107° |
| 2026-04-24 14:03 | 38.04107 | 58.62624 | 10425 ft | 352 kts | 107° |
| 2026-04-24 14:03 | 38.03491 | 58.65741 | 10557 ft | 372 kts | 106° |
| 2026-04-24 14:04 | 38.02889 | 58.68977 | 10834 ft | 385 kts | 105° |
| 2026-04-24 14:04 | 38.02259 | 58.72271 | 11371 ft | 389 kts | 107° |
| 2026-04-24 14:04 | 38.01553 | 58.75659 | 11977 ft | 396 kts | 108° |
| 2026-04-24 14:04 | 38.00805 | 58.79008 | 12598 ft | 402 kts | 108° |
| 2026-04-24 14:05 | 38.00038 | 58.82458 | 13291 ft | 407 kts | 108° |
| 2026-04-24 14:05 | 37.99283 | 58.85941 | 13969 ft | 411 kts | 107° |
| 2026-04-24 14:05 | 37.98548 | 58.89417 | 14602 ft | 414 kts | 107° |
| 2026-04-24 14:05 | 37.97807 | 58.92978 | 15246 ft | 418 kts | 106° |
| 2026-04-24 14:06 | 37.97066 | 58.96563 | 15840 ft | 421 kts | 106° |
| 2026-04-24 14:06 | 37.96325 | 59.00166 | 16389 ft | 424 kts | 106° |
| 2026-04-24 14:06 | 37.95582 | 59.03772 | 16898 ft | 428 kts | 106° |
| 2026-04-24 14:06 | 37.94821 | 59.07457 | 17441 ft | 431 kts | 106° |
| 2026-04-24 14:07 | 37.94057 | 59.11151 | 17978 ft | 434 kts | 106° |
| 2026-04-24 14:07 | 37.93295 | 59.14827 | 18440 ft | 437 kts | 106° |
| 2026-04-24 14:07 | 37.92514 | 59.18586 | 18877 ft | 441 kts | 106° |
| 2026-04-24 14:07 | 37.91727 | 59.22369 | 19292 ft | 444 kts | 106° |
| 2026-04-24 14:08 | 37.90943 | 59.26131 | 19713 ft | 448 kts | 106° |
| 2026-04-24 14:08 | 37.90142 | 59.29968 | 20147 ft | 451 kts | 106° |
| 2026-04-24 14:08 | 37.89317 | 59.33802 | 20529 ft | 451 kts | 110° |
| 2026-04-24 14:08 | 37.87947 | 59.37379 | 20755 ft | 450 kts | 128° |
| 2026-04-24 14:09 | 37.86041 | 59.40496 | 21034 ft | 453 kts | 131° |
| 2026-04-24 14:09 | 37.84074 | 59.43603 | 21428 ft | 457 kts | 131° |
| 2026-04-24 14:09 | 37.82080 | 59.46768 | 21885 ft | 459 kts | 131° |
| 2026-04-24 14:09 | 37.80096 | 59.49958 | 22305 ft | 462 kts | 130° |
| 2026-04-24 14:10 | 37.78781 | 59.52096 | 22562 ft | 464 kts | 130° |
| 2026-04-24 14:10 | 37.76141 | 59.56431 | 23063 ft | 470 kts | 130° |
| 2026-04-24 14:10 | 37.74821 | 59.58612 | 23308 ft | 472 kts | 130° |
| 2026-04-24 14:10 | 37.72817 | 59.61930 | 23637 ft | 475 kts | 130° |
| 2026-04-24 14:11 | 37.70140 | 59.66366 | 24062 ft | 479 kts | 130° |
| 2026-04-24 14:11 | 37.68834 | 59.68527 | 24266 ft | 481 kts | 130° |
| 2026-04-24 14:11 | 37.64019 | 59.76482 | 25012 ft | 488 kts | 130° |
| 2026-04-24 14:12 | 37.62648 | 59.78742 | 25221 ft | 490 kts | 130° |
| 2026-04-24 14:12 | 37.60554 | 59.82189 | 25538 ft | 492 kts | 131° |
| 2026-04-24 14:12 | 37.58464 | 59.85626 | 25850 ft | 495 kts | 131° |
| 2026-04-24 14:12 | 37.56382 | 59.89046 | 26152 ft | 497 kts | 131° |
| 2026-04-24 14:13 | 37.54258 | 59.92532 | 26467 ft | 500 kts | 131° |
| 2026-04-24 14:13 | 37.52157 | 59.95976 | 26748 ft | 502 kts | 131° |
| 2026-04-24 14:13 | 37.50020 | 59.99475 | 27033 ft | 505 kts | 131° |
| 2026-04-24 14:13 | 37.47871 | 60.02990 | 27305 ft | 508 kts | 131° |
| 2026-04-24 14:14 | 37.45707 | 60.06527 | 27583 ft | 510 kts | 131° |
| 2026-04-24 14:14 | 37.43525 | 60.10089 | 27854 ft | 512 kts | 131° |
| 2026-04-24 14:14 | 37.39165 | 60.17196 | 28382 ft | 517 kts | 131° |
| 2026-04-24 14:15 | 37.36955 | 60.20791 | 28622 ft | 519 kts | 131° |
| 2026-04-24 14:15 | 37.34733 | 60.24403 | 28848 ft | 522 kts | 131° |
| 2026-04-24 14:15 | 37.32531 | 60.27978 | 29079 ft | 523 kts | 131° |
| 2026-04-24 14:15 | 37.30298 | 60.31602 | 29426 ft | 523 kts | 131° |
| 2026-04-24 14:16 | 37.28067 | 60.35219 | 29803 ft | 522 kts | 131° |
| 2026-04-24 14:16 | 37.25868 | 60.38780 | 30118 ft | 521 kts | 132° |
| 2026-04-24 14:16 | 37.23639 | 60.42385 | 30396 ft | 521 kts | 132° |
| 2026-04-24 14:17 | 37.19172 | 60.49594 | 30857 ft | 522 kts | 132° |
| 2026-04-24 14:17 | 37.16941 | 60.53188 | 31107 ft | 521 kts | 132° |
| 2026-04-24 14:17 | 37.12500 | 60.60334 | 31622 ft | 520 kts | 132° |
| 2026-04-24 14:18 | 37.10295 | 60.63877 | 31879 ft | 520 kts | 132° |
| 2026-04-24 14:18 | 37.08062 | 60.67459 | 32130 ft | 519 kts | 132° |
| 2026-04-24 14:18 | 37.05825 | 60.71046 | 32342 ft | 519 kts | 132° |
| 2026-04-24 14:18 | 37.03617 | 60.74582 | 32568 ft | 519 kts | 133° |
| 2026-04-24 14:19 | 37.01384 | 60.78154 | 32751 ft | 520 kts | 133° |
| 2026-04-24 14:19 | 36.99150 | 60.81724 | 32826 ft | 522 kts | 133° |
| 2026-04-24 14:19 | 36.94834 | 60.88994 | 32860 ft | 522 kts | 129° |
| 2026-04-24 14:20 | 36.90691 | 60.96430 | 32855 ft | 520 kts | 129° |
| 2026-04-24 14:20 | 36.86571 | 61.03823 | 32861 ft | 519 kts | 129° |
| 2026-04-24 14:21 | 36.82399 | 61.11238 | 32865 ft | 519 kts | 129° |
| 2026-04-24 14:21 | 36.78249 | 61.18573 | 32862 ft | 519 kts | 129° |
| 2026-04-24 14:22 | 36.74083 | 61.25926 | 32860 ft | 520 kts | 129° |
| 2026-04-24 14:23 | 36.67827 | 61.36943 | 32864 ft | 521 kts | 129° |
| 2026-04-24 14:23 | 36.63617 | 61.44340 | 32865 ft | 522 kts | 129° |
| 2026-04-24 14:24 | 36.59392 | 61.51668 | 32866 ft | 523 kts | 130° |
| 2026-04-24 14:24 | 36.55069 | 61.59009 | 32864 ft | 524 kts | 130° |
| 2026-04-24 14:25 | 36.50766 | 61.66291 | 32862 ft | 526 kts | 130° |
| 2026-04-24 14:25 | 36.46419 | 61.73656 | 32863 ft | 527 kts | 130° |
| 2026-04-24 14:26 | 36.42092 | 61.80986 | 32865 ft | 528 kts | 130° |
| 2026-04-24 14:26 | 36.37762 | 61.88307 | 32863 ft | 528 kts | 130° |
| 2026-04-24 14:27 | 36.33408 | 61.95651 | 32863 ft | 528 kts | 130° |
| 2026-04-24 14:27 | 36.29041 | 62.02999 | 32868 ft | 529 kts | 131° |
| 2026-04-24 14:28 | 36.24654 | 62.10364 | 32878 ft | 530 kts | 131° |
| 2026-04-24 14:28 | 36.20280 | 62.17692 | 32871 ft | 531 kts | 131° |
| 2026-04-24 14:29 | 36.15893 | 62.25025 | 32877 ft | 532 kts | 131° |
| 2026-04-24 14:29 | 36.11474 | 62.32398 | 32878 ft | 533 kts | 131° |
| 2026-04-24 14:30 | 36.07806 | 62.38504 | 32882 ft | 534 kts | 131° |
| 2026-04-24 14:30 | 36.02606 | 62.47144 | 32883 ft | 536 kts | 131° |
| 2026-04-24 14:31 | 35.98150 | 62.54531 | 32886 ft | 538 kts | 131° |
| 2026-04-24 14:31 | 35.93673 | 62.61936 | 32884 ft | 539 kts | 131° |
| 2026-04-24 14:32 | 35.89194 | 62.69329 | 32883 ft | 539 kts | 131° |
| 2026-04-24 14:32 | 35.84680 | 62.76763 | 32881 ft | 540 kts | 131° |
| 2026-04-24 14:33 | 35.80177 | 62.84164 | 32882 ft | 541 kts | 131° |
| 2026-04-24 14:33 | 35.75657 | 62.91576 | 32887 ft | 542 kts | 131° |
| 2026-04-24 14:34 | 35.71107 | 62.99020 | 32899 ft | 542 kts | 132° |
| 2026-04-24 14:34 | 35.66582 | 63.06413 | 32894 ft | 543 kts | 132° |
| 2026-04-24 14:35 | 35.62035 | 63.13822 | 32888 ft | 544 kts | 132° |
| 2026-04-24 14:35 | 35.57457 | 63.21266 | 32903 ft | 544 kts | 132° |
| 2026-04-24 14:36 | 35.52868 | 63.28626 | 32916 ft | 545 kts | 133° |
| 2026-04-24 14:36 | 35.48232 | 63.36010 | 32927 ft | 547 kts | 133° |
| 2026-04-24 14:37 | 35.43589 | 63.43409 | 32925 ft | 546 kts | 132° |
| 2026-04-24 14:37 | 35.38949 | 63.50795 | 32948 ft | 546 kts | 133° |
| 2026-04-24 14:38 | 35.34323 | 63.58143 | 32952 ft | 547 kts | 133° |
| 2026-04-24 14:38 | 35.29669 | 63.65524 | 32980 ft | 548 kts | 133° |
| 2026-04-24 14:39 | 35.24990 | 63.72942 | 32979 ft | 549 kts | 133° |
| 2026-04-24 14:39 | 35.20349 | 63.80304 | 32999 ft | 548 kts | 133° |
| 2026-04-24 14:40 | 35.15682 | 63.87693 | 32999 ft | 549 kts | 133° |
| 2026-04-24 14:40 | 35.11023 | 63.95047 | 33005 ft | 550 kts | 133° |
| 2026-04-24 14:41 | 35.06321 | 64.02454 | 33013 ft | 551 kts | 133° |
| 2026-04-24 14:41 | 35.01655 | 64.09790 | 32997 ft | 549 kts | 132° |
| 2026-04-24 14:42 | 34.97751 | 64.15914 | 33030 ft | 549 kts | 133° |
| 2026-04-24 14:42 | 34.92271 | 64.24494 | 33048 ft | 549 kts | 133° |
| 2026-04-24 14:43 | 34.87584 | 64.31820 | 33071 ft | 550 kts | 133° |
| 2026-04-24 14:43 | 34.82884 | 64.39147 | 33072 ft | 550 kts | 133° |
| 2026-04-24 14:44 | 34.78146 | 64.46517 | 33076 ft | 551 kts | 133° |
| 2026-04-24 14:44 | 34.73441 | 64.53822 | 33109 ft | 552 kts | 133° |
| 2026-04-24 14:45 | 34.68694 | 64.61178 | 33112 ft | 553 kts | 133° |
| 2026-04-24 14:45 | 34.63935 | 64.68535 | 33111 ft | 553 kts | 133° |
| 2026-04-24 14:46 | 34.59201 | 64.75841 | 33102 ft | 553 kts | 133° |
| 2026-04-24 14:46 | 34.54438 | 64.83178 | 33106 ft | 552 kts | 133° |
| 2026-04-24 14:47 | 34.50472 | 64.89275 | 33097 ft | 552 kts | 133° |
| 2026-04-24 14:47 | 34.44928 | 64.97764 | 33101 ft | 551 kts | 133° |
| 2026-04-24 14:48 | 34.40183 | 65.05007 | 33111 ft | 551 kts | 133° |
| 2026-04-24 14:48 | 34.35406 | 65.12292 | 33102 ft | 551 kts | 133° |
| 2026-04-24 14:49 | 34.30618 | 65.19573 | 33112 ft | 552 kts | 133° |
| 2026-04-24 14:49 | 34.25859 | 65.26801 | 33119 ft | 551 kts | 133° |
| 2026-04-24 14:50 | 34.21077 | 65.34049 | 33124 ft | 551 kts | 133° |
| 2026-04-24 14:50 | 34.16313 | 65.41256 | 33126 ft | 551 kts | 133° |
| 2026-04-24 14:51 | 34.11510 | 65.48504 | 33143 ft | 551 kts | 133° |
| 2026-04-24 14:51 | 34.06743 | 65.55688 | 33140 ft | 551 kts | 133° |
| 2026-04-24 14:52 | 34.01939 | 65.62915 | 33148 ft | 552 kts | 133° |
| 2026-04-24 14:52 | 33.97123 | 65.70149 | 33141 ft | 553 kts | 133° |
| 2026-04-24 14:53 | 33.92331 | 65.77335 | 33143 ft | 554 kts | 133° |
| 2026-04-24 14:53 | 33.87482 | 65.84593 | 33124 ft | 555 kts | 133° |
| 2026-04-24 14:54 | 33.82668 | 65.91786 | 33126 ft | 555 kts | 133° |
| 2026-04-24 14:54 | 33.77826 | 65.99004 | 33106 ft | 553 kts | 133° |
| 2026-04-24 14:55 | 33.73800 | 66.04995 | 33128 ft | 552 kts | 133° |
| 2026-04-24 14:55 | 33.68148 | 66.13389 | 33105 ft | 553 kts | 133° |
| 2026-04-24 14:56 | 33.63336 | 66.20516 | 33111 ft | 551 kts | 133° |
| 2026-04-24 14:56 | 33.58501 | 66.27667 | 33110 ft | 551 kts | 133° |
| 2026-04-24 14:57 | 33.53697 | 66.34759 | 33094 ft | 551 kts | 133° |
| 2026-04-24 14:57 | 33.48851 | 66.41899 | 33099 ft | 550 kts | 133° |
| 2026-04-24 14:58 | 33.44024 | 66.48992 | 33116 ft | 548 kts | 134° |
| 2026-04-24 14:58 | 33.39223 | 66.56004 | 33102 ft | 547 kts | 134° |
| 2026-04-24 14:59 | 33.35211 | 66.61846 | 33141 ft | 545 kts | 134° |
| 2026-04-24 14:59 | 33.30374 | 66.68884 | 33142 ft | 546 kts | 134° |
| 2026-04-24 15:00 | 33.25541 | 66.75906 | 33146 ft | 546 kts | 133° |
| 2026-04-24 15:00 | 33.20724 | 66.82894 | 33141 ft | 546 kts | 134° |
| 2026-04-24 15:01 | 33.15882 | 66.89902 | 33136 ft | 545 kts | 134° |
| 2026-04-24 15:01 | 33.11076 | 66.96848 | 33133 ft | 545 kts | 134° |
| 2026-04-24 15:02 | 33.06240 | 67.03823 | 33127 ft | 543 kts | 134° |
| 2026-04-24 15:02 | 33.01444 | 67.10725 | 33107 ft | 542 kts | 134° |
| 2026-04-24 15:03 | 32.96627 | 67.17645 | 33090 ft | 541 kts | 134° |
| 2026-04-24 15:03 | 32.91816 | 67.24544 | 33076 ft | 541 kts | 134° |
| 2026-04-24 15:04 | 32.87002 | 67.31434 | 33054 ft | 541 kts | 134° |
| 2026-04-24 15:04 | 32.82200 | 67.38297 | 33041 ft | 542 kts | 134° |
| 2026-04-24 15:05 | 32.77359 | 67.45200 | 33022 ft | 542 kts | 134° |
| 2026-04-24 15:05 | 32.72414 | 67.51959 | 33040 ft | 540 kts | 135° |
| 2026-04-24 15:06 | 32.67419 | 67.58594 | 33011 ft | 541 kts | 136° |
| 2026-04-24 15:06 | 32.62429 | 67.65256 | 33020 ft | 541 kts | 135° |
| 2026-04-24 15:07 | 32.57431 | 67.71958 | 32991 ft | 541 kts | 135° |
| 2026-04-24 15:07 | 32.52436 | 67.78647 | 33003 ft | 541 kts | 135° |
| 2026-04-24 15:08 | 32.47506 | 67.85337 | 33003 ft | 541 kts | 133° |
| 2026-04-24 15:08 | 32.42723 | 67.92248 | 33013 ft | 541 kts | 132° |
| 2026-04-24 15:09 | 32.37978 | 67.99168 | 33016 ft | 540 kts | 133° |
| 2026-04-24 15:09 | 32.33234 | 68.06003 | 33020 ft | 539 kts | 133° |
| 2026-04-24 15:10 | 32.28441 | 68.12851 | 33024 ft | 539 kts | 133° |
| 2026-04-24 15:10 | 32.23679 | 68.19638 | 33025 ft | 538 kts | 133° |
| 2026-04-24 15:11 | 32.18888 | 68.26457 | 33022 ft | 537 kts | 133° |
| 2026-04-24 15:11 | 32.14116 | 68.33241 | 33021 ft | 536 kts | 133° |
| 2026-04-24 15:12 | 32.09356 | 68.39997 | 33022 ft | 535 kts | 133° |
| 2026-04-24 15:12 | 32.02235 | 68.50079 | 33011 ft | 533 kts | 133° |
| 2026-04-24 15:13 | 31.97501 | 68.56768 | 33007 ft | 532 kts | 133° |
| 2026-04-24 15:13 | 31.92752 | 68.63464 | 33002 ft | 532 kts | 133° |
| 2026-04-24 15:14 | 31.88022 | 68.70123 | 32994 ft | 532 kts | 133° |
| 2026-04-24 15:14 | 31.83265 | 68.76807 | 32979 ft | 533 kts | 133° |
| 2026-04-24 15:15 | 31.78486 | 68.83512 | 32979 ft | 533 kts | 133° |
| 2026-04-24 15:15 | 31.73718 | 68.90190 | 32972 ft | 533 kts | 133° |
| 2026-04-24 15:16 | 31.68968 | 68.96832 | 32961 ft | 533 kts | 133° |
| 2026-04-24 15:16 | 31.64223 | 69.03546 | 32948 ft | 534 kts | 131° |
| 2026-04-24 15:17 | 31.59650 | 69.10380 | 32949 ft | 534 kts | 131° |
| 2026-04-24 15:17 | 31.55065 | 69.17260 | 32938 ft | 533 kts | 131° |
| 2026-04-24 15:18 | 31.50501 | 69.24035 | 32932 ft | 532 kts | 131° |
| 2026-04-24 15:18 | 31.45896 | 69.30831 | 32918 ft | 532 kts | 131° |
| 2026-04-24 15:19 | 31.41304 | 69.37601 | 32926 ft | 531 kts | 131° |
| 2026-04-24 15:19 | 31.36679 | 69.44309 | 32924 ft | 530 kts | 135° |
| 2026-04-24 15:20 | 31.31365 | 69.50205 | 32925 ft | 523 kts | 145° |
| 2026-04-24 15:20 | 31.25656 | 69.55512 | 32916 ft | 523 kts | 145° |
| 2026-04-24 15:21 | 31.19976 | 69.60814 | 32925 ft | 523 kts | 145° |
| 2026-04-24 15:21 | 31.14339 | 69.66124 | 32925 ft | 522 kts | 144° |
| 2026-04-24 15:22 | 31.08675 | 69.71478 | 32933 ft | 522 kts | 144° |
| 2026-04-24 15:23 | 31.00201 | 69.79469 | 32917 ft | 521 kts | 144° |
| 2026-04-24 15:23 | 30.91757 | 69.87407 | 32917 ft | 521 kts | 144° |
| 2026-04-24 15:25 | 30.78570 | 69.99763 | 32917 ft | 524 kts | 144° |
| 2026-04-24 15:26 | 30.63333 | 70.13989 | 32861 ft | 528 kts | 144° |
| 2026-04-24 15:27 | 30.46170 | 70.29941 | 32832 ft | 526 kts | 144° |
| 2026-04-24 15:29 | 30.29014 | 70.45814 | 32798 ft | 526 kts | 144° |
| 2026-04-24 15:31 | 30.09138 | 70.64443 | 32765 ft | 526 kts | 143° |
| 2026-04-24 15:33 | 29.86497 | 70.85775 | 32761 ft | 524 kts | 143° |
| 2026-04-24 15:34 | 29.72347 | 70.99036 | 32765 ft | 524 kts | 143° |
| 2026-04-24 15:35 | 29.58546 | 71.12668 | 32765 ft | 525 kts | 139° |
| 2026-04-24 15:36 | 29.53118 | 71.18295 | 32768 ft | 525 kts | 140° |
| 2026-04-24 15:36 | 29.44920 | 71.26652 | 32762 ft | 525 kts | 140° |
| 2026-04-24 15:37 | 29.39475 | 71.32180 | 32763 ft | 525 kts | 140° |
| 2026-04-24 15:37 | 29.33995 | 71.37742 | 32766 ft | 525 kts | 140° |
| 2026-04-24 15:38 | 29.28519 | 71.43295 | 32767 ft | 525 kts | 139° |
| 2026-04-24 15:38 | 29.23098 | 71.48830 | 32767 ft | 525 kts | 139° |
| 2026-04-24 15:39 | 29.17653 | 71.54407 | 32763 ft | 524 kts | 139° |
| 2026-04-24 15:39 | 29.12209 | 71.59972 | 32763 ft | 523 kts | 139° |
| 2026-04-24 15:40 | 29.06809 | 71.65476 | 32761 ft | 522 kts | 139° |
| 2026-04-24 15:40 | 29.01373 | 71.71007 | 32757 ft | 521 kts | 139° |
| 2026-04-24 15:41 | 28.95988 | 71.76478 | 32758 ft | 519 kts | 139° |
| 2026-04-24 15:41 | 28.90601 | 71.81945 | 32762 ft | 518 kts | 139° |
| 2026-04-24 15:42 | 28.85205 | 71.87412 | 32756 ft | 517 kts | 139° |
| 2026-04-24 15:42 | 28.79807 | 71.92873 | 32760 ft | 517 kts | 139° |
| 2026-04-24 15:43 | 28.74456 | 71.98280 | 32760 ft | 516 kts | 139° |
| 2026-04-24 15:43 | 28.69079 | 72.03705 | 32760 ft | 515 kts | 139° |
| 2026-04-24 15:44 | 28.64611 | 72.08207 | 32758 ft | 515 kts | 139° |
| 2026-04-24 15:44 | 28.58372 | 72.14486 | 32757 ft | 514 kts | 139° |
| 2026-04-24 15:45 | 28.53877 | 72.19003 | 32768 ft | 513 kts | 139° |
| 2026-04-24 15:45 | 28.48864 | 72.24768 | 32753 ft | 512 kts | 128° |
| 2026-04-24 15:46 | 28.44902 | 72.31434 | 32745 ft | 511 kts | 117° |
| 2026-04-24 15:46 | 28.41622 | 72.38606 | 32749 ft | 510 kts | 116° |
| 2026-04-24 15:47 | 28.38368 | 72.45775 | 32767 ft | 510 kts | 116° |
| 2026-04-24 15:47 | 28.35098 | 72.52875 | 32754 ft | 510 kts | 117° |
| 2026-04-24 15:48 | 28.31781 | 72.60011 | 32750 ft | 510 kts | 117° |
| 2026-04-24 15:48 | 28.28477 | 72.67097 | 32749 ft | 510 kts | 117° |
| 2026-04-24 15:49 | 28.25146 | 72.74231 | 32766 ft | 509 kts | 117° |
| 2026-04-24 15:49 | 28.21836 | 72.81313 | 32762 ft | 509 kts | 117° |
| 2026-04-24 15:50 | 28.18514 | 72.88408 | 32768 ft | 508 kts | 117° |
| 2026-04-24 15:50 | 28.15220 | 72.95433 | 32752 ft | 508 kts | 117° |
| 2026-04-24 15:51 | 28.11896 | 73.02509 | 32763 ft | 507 kts | 117° |
| 2026-04-24 15:51 | 28.08579 | 73.09558 | 32770 ft | 506 kts | 117° |
| 2026-04-24 15:52 | 28.05286 | 73.16542 | 32762 ft | 505 kts | 117° |
| 2026-04-24 15:52 | 28.01973 | 73.23559 | 32768 ft | 505 kts | 117° |
| 2026-04-24 15:53 | 27.98650 | 73.30584 | 32768 ft | 504 kts | 117° |
| 2026-04-24 15:53 | 27.95356 | 73.37538 | 32767 ft | 504 kts | 117° |
| 2026-04-24 15:54 | 27.92023 | 73.44560 | 32781 ft | 504 kts | 117° |
| 2026-04-24 15:54 | 27.88714 | 73.51522 | 32770 ft | 505 kts | 117° |
| 2026-04-24 15:55 | 27.85385 | 73.58513 | 32769 ft | 505 kts | 117° |
| 2026-04-24 15:55 | 27.82044 | 73.65518 | 32778 ft | 505 kts | 117° |
| 2026-04-24 15:56 | 27.78720 | 73.72476 | 32781 ft | 505 kts | 117° |
| 2026-04-24 15:56 | 27.75370 | 73.79479 | 32786 ft | 506 kts | 117° |
| 2026-04-24 15:57 | 27.72058 | 73.86452 | 32795 ft | 506 kts | 116° |
| 2026-04-24 15:57 | 27.68892 | 73.93567 | 32785 ft | 506 kts | 115° |
| 2026-04-24 15:58 | 27.65772 | 74.00699 | 32792 ft | 506 kts | 115° |
| 2026-04-24 15:58 | 27.62649 | 74.07768 | 32794 ft | 506 kts | 115° |
| 2026-04-24 15:59 | 27.59480 | 74.14878 | 32800 ft | 506 kts | 115° |
| 2026-04-24 15:59 | 27.56303 | 74.21983 | 32804 ft | 506 kts | 115° |
| 2026-04-24 16:00 | 27.53148 | 74.29028 | 32803 ft | 506 kts | 115° |
| 2026-04-24 16:00 | 27.49964 | 74.36130 | 32806 ft | 506 kts | 115° |
| 2026-04-24 16:01 | 27.46804 | 74.43165 | 32813 ft | 505 kts | 115° |
| 2026-04-24 16:01 | 27.43626 | 74.50233 | 32813 ft | 505 kts | 115° |
| 2026-04-24 16:02 | 27.40442 | 74.57298 | 32808 ft | 505 kts | 115° |
| 2026-04-24 16:02 | 27.37260 | 74.64346 | 32828 ft | 504 kts | 115° |
| 2026-04-24 16:03 | 27.34095 | 74.71346 | 32822 ft | 504 kts | 115° |
| 2026-04-24 16:03 | 27.30904 | 74.78391 | 32831 ft | 504 kts | 115° |
| 2026-04-24 16:04 | 27.27735 | 74.85377 | 32827 ft | 503 kts | 115° |
| 2026-04-24 16:04 | 27.24545 | 74.92397 | 32837 ft | 503 kts | 115° |
| 2026-04-24 16:05 | 27.19765 | 75.02893 | 32836 ft | 502 kts | 116° |
| 2026-04-24 16:06 | 27.14997 | 75.13338 | 32837 ft | 501 kts | 116° |
| 2026-04-24 16:07 | 27.10231 | 75.23755 | 32834 ft | 500 kts | 116° |
| 2026-04-24 16:07 | 27.05451 | 75.34178 | 32838 ft | 499 kts | 116° |
| 2026-04-24 16:08 | 27.00701 | 75.44533 | 32838 ft | 499 kts | 116° |
| 2026-04-24 16:09 | 26.95922 | 75.54937 | 32854 ft | 499 kts | 116° |
| 2026-04-24 16:09 | 26.92749 | 75.61831 | 32856 ft | 500 kts | 116° |
| 2026-04-24 16:11 | 26.84760 | 75.79133 | 32857 ft | 501 kts | 116° |
| 2026-04-24 16:11 | 26.81537 | 75.86045 | 32856 ft | 501 kts | 118° |
| 2026-04-24 16:12 | 26.76329 | 75.96230 | 32857 ft | 502 kts | 119° |
| 2026-04-24 16:13 | 26.71102 | 76.06362 | 32849 ft | 502 kts | 119° |
| 2026-04-24 16:14 | 26.64195 | 76.19880 | 32840 ft | 501 kts | 119° |
| 2026-04-24 16:14 | 26.59002 | 76.30012 | 32838 ft | 500 kts | 119° |
| 2026-04-24 16:15 | 26.53797 | 76.40141 | 32833 ft | 500 kts | 119° |
| 2026-04-24 16:16 | 26.48610 | 76.50214 | 32830 ft | 500 kts | 119° |
| 2026-04-24 16:17 | 26.40290 | 76.67218 | 32824 ft | 499 kts | 117° |
| 2026-04-24 16:18 | 26.33790 | 76.80904 | 32824 ft | 500 kts | 117° |
| 2026-04-24 16:19 | 26.28880 | 76.91133 | 32815 ft | 500 kts | 117° |
| 2026-04-24 16:20 | 26.23963 | 77.01356 | 32819 ft | 499 kts | 117° |
| 2026-04-24 16:20 | 26.19050 | 77.11555 | 32816 ft | 499 kts | 117° |
| 2026-04-24 16:21 | 26.14114 | 77.21777 | 32817 ft | 498 kts | 118° |
| 2026-04-24 16:22 | 26.10834 | 77.28527 | 32818 ft | 498 kts | 118° |
| 2026-04-24 16:22 | 26.05856 | 77.38724 | 32817 ft | 498 kts | 118° |
| 2026-04-24 16:23 | 26.02564 | 77.45462 | 32820 ft | 498 kts | 118° |
| 2026-04-24 16:24 | 25.97585 | 77.55634 | 32816 ft | 499 kts | 118° |
| 2026-04-24 16:24 | 25.94262 | 77.62413 | 32816 ft | 499 kts | 118° |
| 2026-04-24 16:25 | 25.90959 | 77.69140 | 32820 ft | 499 kts | 118° |
| 2026-04-24 16:25 | 25.87630 | 77.75909 | 32815 ft | 499 kts | 118° |
| 2026-04-24 16:26 | 25.82645 | 77.86027 | 32809 ft | 498 kts | 118° |
| 2026-04-24 16:27 | 25.77641 | 77.96159 | 32805 ft | 498 kts | 119° |
| 2026-04-24 16:27 | 25.74325 | 78.02861 | 32803 ft | 498 kts | 119° |
| 2026-04-24 16:28 | 25.70981 | 78.09611 | 32801 ft | 498 kts | 119° |
| 2026-04-24 16:28 | 25.65966 | 78.19714 | 32801 ft | 498 kts | 119° |
| 2026-04-24 16:29 | 25.62639 | 78.26406 | 32800 ft | 498 kts | 119° |
| 2026-04-24 16:30 | 25.56519 | 78.38786 | 32803 ft | 499 kts | 119° |
| 2026-04-24 16:30 | 25.52678 | 78.46613 | 32805 ft | 499 kts | 119° |
| 2026-04-24 16:31 | 25.49912 | 78.52233 | 32809 ft | 498 kts | 119° |
| 2026-04-24 16:31 | 25.46586 | 78.58974 | 32805 ft | 498 kts | 119° |
| 2026-04-24 16:32 | 25.43257 | 78.65712 | 32810 ft | 498 kts | 119° |
| 2026-04-24 16:32 | 25.39939 | 78.72415 | 32806 ft | 499 kts | 120° |
| 2026-04-24 16:33 | 25.36592 | 78.79169 | 32811 ft | 500 kts | 120° |
| 2026-04-24 16:33 | 25.33246 | 78.85909 | 32811 ft | 502 kts | 120° |
| 2026-04-24 16:34 | 25.29893 | 78.92656 | 32809 ft | 503 kts | 120° |
| 2026-04-24 16:34 | 25.26506 | 78.99458 | 32808 ft | 504 kts | 120° |
| 2026-04-24 16:35 | 25.23117 | 79.06256 | 32807 ft | 505 kts | 120° |
| 2026-04-24 16:35 | 25.19743 | 79.13014 | 32806 ft | 505 kts | 120° |
| 2026-04-24 16:36 | 25.16337 | 79.19826 | 32807 ft | 505 kts | 120° |
| 2026-04-24 16:36 | 25.12950 | 79.26590 | 32809 ft | 505 kts | 120° |
| 2026-04-24 16:37 | 25.09558 | 79.33354 | 32805 ft | 504 kts | 120° |
| 2026-04-24 16:37 | 25.06156 | 79.40129 | 32809 ft | 504 kts | 120° |
| 2026-04-24 16:38 | 25.02763 | 79.46876 | 32817 ft | 504 kts | 120° |
| 2026-04-24 16:38 | 24.99358 | 79.53636 | 32813 ft | 504 kts | 120° |
| 2026-04-24 16:39 | 24.95949 | 79.60395 | 32813 ft | 504 kts | 120° |
| 2026-04-24 16:39 | 24.92521 | 79.67182 | 32811 ft | 505 kts | 121° |
| 2026-04-24 16:40 | 24.89107 | 79.73930 | 32817 ft | 505 kts | 121° |
| 2026-04-24 16:40 | 24.85687 | 79.80684 | 32817 ft | 506 kts | 121° |
| 2026-04-24 16:41 | 24.82254 | 79.87452 | 32815 ft | 507 kts | 121° |
| 2026-04-24 16:41 | 24.78470 | 79.93913 | 32811 ft | 504 kts | 131° |
| 2026-04-24 16:42 | 24.73973 | 79.99821 | 32816 ft | 503 kts | 133° |
| 2026-04-24 16:42 | 24.69460 | 80.05695 | 32819 ft | 504 kts | 132° |
| 2026-04-24 16:43 | 24.64947 | 80.11624 | 32820 ft | 505 kts | 132° |
| 2026-04-24 16:43 | 24.60464 | 80.17544 | 32824 ft | 505 kts | 132° |
| 2026-04-24 16:44 | 24.55961 | 80.23493 | 32825 ft | 505 kts | 132° |
| 2026-04-24 16:44 | 24.51463 | 80.29426 | 32828 ft | 505 kts | 132° |
| 2026-04-24 16:45 | 24.46975 | 80.35334 | 32827 ft | 505 kts | 133° |
| 2026-04-24 16:45 | 24.42488 | 80.41234 | 32831 ft | 505 kts | 133° |
| 2026-04-24 16:46 | 24.37962 | 80.47177 | 32835 ft | 505 kts | 133° |
| 2026-04-24 16:46 | 24.33475 | 80.53061 | 32831 ft | 506 kts | 133° |
| 2026-04-24 16:47 | 24.28947 | 80.58993 | 32839 ft | 506 kts | 133° |
| 2026-04-24 16:47 | 24.24443 | 80.64886 | 32835 ft | 506 kts | 133° |
| 2026-04-24 16:48 | 24.19907 | 80.70814 | 32834 ft | 507 kts | 133° |
| 2026-04-24 16:48 | 24.15354 | 80.76756 | 32837 ft | 507 kts | 133° |
| 2026-04-24 16:49 | 24.10833 | 80.82649 | 32838 ft | 508 kts | 133° |
| 2026-04-24 16:49 | 24.06278 | 80.88581 | 32844 ft | 508 kts | 133° |
| 2026-04-24 16:50 | 24.01751 | 80.94469 | 32845 ft | 508 kts | 133° |
| 2026-04-24 16:50 | 23.97206 | 81.00372 | 32834 ft | 508 kts | 134° |
| 2026-04-24 16:51 | 23.92630 | 81.06308 | 32853 ft | 508 kts | 134° |
| 2026-04-24 16:51 | 23.88097 | 81.12183 | 32836 ft | 509 kts | 134° |
| 2026-04-24 16:52 | 23.83525 | 81.18100 | 32849 ft | 509 kts | 134° |
| 2026-04-24 16:52 | 23.78957 | 81.24005 | 32852 ft | 509 kts | 134° |
| 2026-04-24 16:53 | 23.74378 | 81.29917 | 32842 ft | 510 kts | 134° |
| 2026-04-24 16:53 | 23.69774 | 81.35854 | 32845 ft | 510 kts | 134° |
| 2026-04-24 16:54 | 23.65196 | 81.41751 | 32841 ft | 511 kts | 134° |
| 2026-04-24 16:54 | 23.60616 | 81.47644 | 32844 ft | 511 kts | 135° |
| 2026-04-24 16:55 | 23.56010 | 81.53562 | 32845 ft | 512 kts | 135° |
| 2026-04-24 16:55 | 23.51409 | 81.59468 | 32845 ft | 512 kts | 135° |
| 2026-04-24 16:56 | 23.46803 | 81.65374 | 32847 ft | 513 kts | 135° |
| 2026-04-24 16:56 | 23.42167 | 81.71308 | 32847 ft | 513 kts | 135° |
| 2026-04-24 16:57 | 23.37519 | 81.77253 | 32848 ft | 514 kts | 136° |
| 2026-04-24 16:57 | 23.32884 | 81.83174 | 32853 ft | 515 kts | 136° |
| 2026-04-24 16:58 | 23.28241 | 81.89099 | 32853 ft | 516 kts | 136° |
| 2026-04-24 16:58 | 23.23586 | 81.95032 | 32855 ft | 517 kts | 136° |
| 2026-04-24 16:59 | 23.18911 | 82.00983 | 32854 ft | 518 kts | 136° |
| 2026-04-24 17:00 | 23.11890 | 82.09909 | 32851 ft | 519 kts | 137° |
| 2026-04-24 17:00 | 23.04853 | 82.18873 | 32846 ft | 520 kts | 136° |
| 2026-04-24 17:01 | 22.97989 | 82.27984 | 32843 ft | 521 kts | 136° |
| 2026-04-24 17:02 | 22.91098 | 82.37145 | 32837 ft | 521 kts | 136° |
| 2026-04-24 17:02 | 22.86524 | 82.43185 | 32813 ft | 521 kts | 136° |
| 2026-04-24 17:03 | 22.79615 | 82.52288 | 32803 ft | 520 kts | 136° |
| 2026-04-24 17:04 | 22.75025 | 82.58330 | 32801 ft | 520 kts | 136° |
| 2026-04-24 17:04 | 22.70384 | 82.64430 | 33143 ft | 523 kts | 136° |
| 2026-04-24 17:04 | 22.68100 | 82.67430 | 33477 ft | 522 kts | 137° |
| 2026-04-24 17:05 | 22.66564 | 82.69447 | 33714 ft | 522 kts | 137° |
| 2026-04-24 17:05 | 22.63464 | 82.73519 | 34097 ft | 521 kts | 137° |
| 2026-04-24 17:05 | 22.58877 | 82.79534 | 34652 ft | 519 kts | 137° |
| 2026-04-24 17:06 | 22.56561 | 82.82567 | 34726 ft | 521 kts | 137° |
| 2026-04-24 17:06 | 22.49654 | 82.91602 | 34799 ft | 519 kts | 137° |
| 2026-04-24 17:07 | 22.45055 | 82.97609 | 34804 ft | 517 kts | 137° |
| 2026-04-24 17:08 | 22.35882 | 83.09574 | 34788 ft | 516 kts | 137° |
| 2026-04-24 17:08 | 22.31302 | 83.15536 | 34786 ft | 516 kts | 137° |
| 2026-04-24 17:09 | 22.22130 | 83.27458 | 34777 ft | 516 kts | 137° |
| 2026-04-24 17:10 | 22.13058 | 83.39487 | 34776 ft | 518 kts | 135° |
| 2026-04-24 17:12 | 21.94759 | 83.63401 | 34778 ft | 516 kts | 137° |
| 2026-04-24 18:54 | 11.85541 | 94.39480 | 34857 ft | 488 kts | 136° |
| 2026-04-24 18:55 | 11.78641 | 94.47069 | 34858 ft | 487 kts | 130° |
| 2026-04-24 18:56 | 11.74239 | 94.52300 | 34857 ft | 487 kts | 130° |
| 2026-04-24 18:56 | 11.69801 | 94.57552 | 34857 ft | 487 kts | 130° |
| 2026-04-24 18:57 | 11.65376 | 94.62755 | 34854 ft | 487 kts | 131° |
| 2026-04-24 18:57 | 11.61681 | 94.67088 | 34853 ft | 487 kts | 131° |
| 2026-04-24 18:58 | 11.56499 | 94.73162 | 34854 ft | 487 kts | 131° |
| 2026-04-24 18:58 | 11.52780 | 94.77519 | 34857 ft | 487 kts | 131° |
| 2026-04-24 18:59 | 11.48340 | 94.82720 | 34850 ft | 487 kts | 131° |
| 2026-04-24 18:59 | 11.43908 | 94.87909 | 34852 ft | 487 kts | 131° |
| 2026-04-24 19:00 | 11.39455 | 94.93118 | 34854 ft | 487 kts | 131° |
| 2026-04-24 19:00 | 11.35023 | 94.98302 | 34856 ft | 487 kts | 131° |
| 2026-04-24 19:01 | 11.30550 | 95.03531 | 34855 ft | 487 kts | 131° |
| 2026-04-24 19:01 | 11.26108 | 95.08721 | 34854 ft | 486 kts | 131° |
| 2026-04-24 19:02 | 11.21673 | 95.13900 | 34852 ft | 486 kts | 130° |
| 2026-04-24 19:02 | 11.17212 | 95.19106 | 34855 ft | 486 kts | 130° |
| 2026-04-24 19:03 | 11.12795 | 95.24259 | 34853 ft | 486 kts | 130° |
| 2026-04-24 19:03 | 11.08332 | 95.29462 | 34850 ft | 486 kts | 130° |
| 2026-04-24 19:04 | 11.03888 | 95.34641 | 34852 ft | 486 kts | 130° |
| 2026-04-24 19:04 | 10.99456 | 95.39803 | 34850 ft | 486 kts | 130° |
| 2026-04-24 19:05 | 10.94998 | 95.44993 | 34853 ft | 486 kts | 130° |
| 2026-04-24 19:05 | 10.90579 | 95.50135 | 34852 ft | 486 kts | 130° |
| 2026-04-24 19:06 | 10.86114 | 95.55328 | 34851 ft | 486 kts | 130° |
| 2026-04-24 19:06 | 10.81681 | 95.60481 | 34853 ft | 486 kts | 130° |
| 2026-04-24 19:07 | 10.77221 | 95.65663 | 34852 ft | 486 kts | 130° |
| 2026-04-24 19:07 | 10.72775 | 95.70827 | 34854 ft | 486 kts | 130° |
| 2026-04-24 19:08 | 10.68322 | 95.75995 | 34852 ft | 486 kts | 130° |
| 2026-04-24 19:08 | 10.63871 | 95.81160 | 34851 ft | 486 kts | 130° |
| 2026-04-24 19:09 | 10.59437 | 95.86302 | 34853 ft | 486 kts | 130° |
| 2026-04-24 19:09 | 10.54962 | 95.91489 | 34852 ft | 486 kts | 130° |
| 2026-04-24 19:10 | 10.50517 | 95.96638 | 34854 ft | 486 kts | 130° |
| 2026-04-24 19:10 | 10.46053 | 96.01808 | 34855 ft | 486 kts | 130° |
| 2026-04-24 19:11 | 10.41600 | 96.06961 | 34853 ft | 486 kts | 130° |
| 2026-04-24 19:11 | 10.37133 | 96.12130 | 34852 ft | 486 kts | 130° |
| 2026-04-24 19:12 | 10.32677 | 96.17282 | 34851 ft | 486 kts | 130° |
| 2026-04-24 19:12 | 10.28228 | 96.22424 | 34851 ft | 486 kts | 130° |
| 2026-04-24 19:13 | 10.24514 | 96.26716 | 34852 ft | 486 kts | 130° |
| 2026-04-24 19:13 | 10.19297 | 96.32740 | 34851 ft | 485 kts | 130° |
| 2026-04-24 19:14 | 10.14853 | 96.37870 | 34851 ft | 485 kts | 130° |
| 2026-04-24 19:14 | 10.10406 | 96.43001 | 34855 ft | 485 kts | 130° |
| 2026-04-24 19:15 | 10.05951 | 96.48140 | 34853 ft | 485 kts | 130° |
| 2026-04-24 19:15 | 10.01481 | 96.53292 | 34853 ft | 485 kts | 130° |
| 2026-04-24 19:16 | 9.94301 | 96.60454 | 34857 ft | 485 kts | 136° |
| 2026-04-24 19:16 | 9.89295 | 96.65089 | 34854 ft | 485 kts | 136° |
| 2026-04-24 19:17 | 9.84336 | 96.69709 | 34853 ft | 485 kts | 136° |
| 2026-04-24 19:17 | 9.79380 | 96.74354 | 34855 ft | 486 kts | 136° |
| 2026-04-24 19:18 | 9.74423 | 96.79007 | 34854 ft | 486 kts | 136° |
| 2026-04-24 19:18 | 9.69479 | 96.83646 | 34850 ft | 486 kts | 136° |
| 2026-04-24 19:19 | 9.64512 | 96.88302 | 34849 ft | 487 kts | 136° |
| 2026-04-24 19:19 | 9.59521 | 96.92978 | 34850 ft | 487 kts | 136° |
| 2026-04-24 19:20 | 9.54552 | 96.97632 | 34852 ft | 487 kts | 136° |
| 2026-04-24 19:20 | 9.49577 | 97.02288 | 34852 ft | 487 kts | 136° |
| 2026-04-24 19:21 | 9.44590 | 97.06955 | 34850 ft | 487 kts | 136° |
| 2026-04-24 19:21 | 9.39607 | 97.11616 | 34850 ft | 487 kts | 136° |
| 2026-04-24 19:22 | 9.34629 | 97.16270 | 34851 ft | 487 kts | 136° |
| 2026-04-24 19:22 | 9.29657 | 97.20917 | 34848 ft | 487 kts | 136° |
| 2026-04-24 19:23 | 9.24671 | 97.25575 | 34851 ft | 487 kts | 136° |
| 2026-04-24 19:23 | 9.19706 | 97.30211 | 34846 ft | 487 kts | 136° |
| 2026-04-24 19:24 | 9.14723 | 97.34862 | 34850 ft | 487 kts | 136° |
| 2026-04-24 19:24 | 9.09734 | 97.39518 | 34850 ft | 487 kts | 136° |
| 2026-04-24 19:25 | 9.04775 | 97.44143 | 34850 ft | 487 kts | 136° |
| 2026-04-24 19:25 | 8.99786 | 97.48795 | 34850 ft | 487 kts | 136° |
| 2026-04-24 19:26 | 8.94799 | 97.53443 | 34848 ft | 487 kts | 136° |
| 2026-04-24 19:26 | 8.89807 | 97.58095 | 34848 ft | 487 kts | 136° |
| 2026-04-24 19:27 | 8.84857 | 97.62705 | 34848 ft | 486 kts | 137° |
| 2026-04-24 19:27 | 8.79885 | 97.67332 | 34847 ft | 486 kts | 137° |
| 2026-04-24 19:28 | 8.74886 | 97.71982 | 34846 ft | 486 kts | 137° |
| 2026-04-24 19:28 | 8.69934 | 97.76588 | 34848 ft | 486 kts | 137° |
| 2026-04-24 19:29 | 8.62458 | 97.83539 | 34847 ft | 486 kts | 137° |
| 2026-04-24 19:30 | 8.57477 | 97.88168 | 34849 ft | 486 kts | 137° |
| 2026-04-24 19:30 | 8.52493 | 97.92798 | 34846 ft | 486 kts | 137° |
| 2026-04-24 19:31 | 8.47540 | 97.97396 | 34845 ft | 486 kts | 137° |
| 2026-04-24 19:31 | 8.42545 | 98.02008 | 34848 ft | 486 kts | 137° |
| 2026-04-24 19:32 | 8.37544 | 98.06614 | 34846 ft | 486 kts | 137° |
| 2026-04-24 19:32 | 8.32571 | 98.11196 | 34847 ft | 486 kts | 137° |
| 2026-04-24 19:33 | 8.27574 | 98.15802 | 34839 ft | 486 kts | 137° |
| 2026-04-24 19:33 | 8.22602 | 98.20383 | 34834 ft | 486 kts | 137° |
| 2026-04-24 19:34 | 8.17601 | 98.24990 | 34830 ft | 486 kts | 137° |
| 2026-04-24 19:34 | 8.12628 | 98.29569 | 34832 ft | 486 kts | 137° |
| 2026-04-24 19:35 | 8.07481 | 98.34007 | 34830 ft | 486 kts | 141° |
| 2026-04-24 19:35 | 8.02209 | 98.38305 | 34837 ft | 486 kts | 141° |
| 2026-04-24 19:36 | 7.96973 | 98.42576 | 34832 ft | 487 kts | 141° |
| 2026-04-24 19:36 | 7.91708 | 98.46902 | 34843 ft | 487 kts | 141° |
| 2026-04-24 19:37 | 7.86474 | 98.51211 | 34851 ft | 487 kts | 141° |
| 2026-04-24 19:37 | 7.81202 | 98.55547 | 34845 ft | 488 kts | 141° |
| 2026-04-24 19:38 | 7.75964 | 98.59852 | 34852 ft | 487 kts | 141° |
| 2026-04-24 19:38 | 7.70685 | 98.64190 | 34852 ft | 487 kts | 141° |
| 2026-04-24 19:39 | 7.65461 | 98.68485 | 34846 ft | 487 kts | 141° |
| 2026-04-24 19:39 | 7.60199 | 98.72810 | 34853 ft | 487 kts | 141° |
| 2026-04-24 19:40 | 7.54936 | 98.77134 | 34852 ft | 487 kts | 141° |
| 2026-04-24 19:40 | 7.49716 | 98.81423 | 34854 ft | 486 kts | 141° |
| 2026-04-24 19:41 | 7.44466 | 98.85733 | 34851 ft | 486 kts | 141° |
| 2026-04-24 19:41 | 7.39209 | 98.90046 | 34854 ft | 486 kts | 141° |
| 2026-04-24 19:42 | 7.33983 | 98.94334 | 34855 ft | 486 kts | 141° |
| 2026-04-24 19:42 | 7.28734 | 98.98639 | 34849 ft | 485 kts | 141° |
| 2026-04-24 19:43 | 7.23516 | 99.02917 | 34846 ft | 485 kts | 141° |
| 2026-04-24 19:43 | 7.18260 | 99.07226 | 34851 ft | 485 kts | 141° |
| 2026-04-24 19:44 | 7.13042 | 99.11503 | 34850 ft | 485 kts | 141° |
| 2026-04-24 19:44 | 7.07798 | 99.15798 | 34847 ft | 485 kts | 141° |
| 2026-04-24 19:45 | 7.02567 | 99.20082 | 34846 ft | 486 kts | 141° |
| 2026-04-24 19:45 | 6.97311 | 99.24386 | 34844 ft | 486 kts | 141° |
| 2026-04-24 19:46 | 6.92092 | 99.28658 | 34844 ft | 486 kts | 141° |
| 2026-04-24 19:46 | 6.87707 | 99.32247 | 34848 ft | 487 kts | 141° |
| 2026-04-24 19:47 | 6.82438 | 99.36557 | 34848 ft | 487 kts | 141° |
| 2026-04-24 19:47 | 6.77198 | 99.40843 | 34842 ft | 487 kts | 141° |
| 2026-04-24 19:48 | 6.71924 | 99.45155 | 34842 ft | 488 kts | 141° |
| 2026-04-24 19:48 | 6.64030 | 99.51606 | 34842 ft | 488 kts | 141° |
| 2026-04-24 19:49 | 6.53470 | 99.60233 | 34850 ft | 488 kts | 141° |
| 2026-04-24 19:50 | 6.42866 | 99.68763 | 34868 ft | 488 kts | 143° |
| 2026-04-24 19:51 | 6.34842 | 99.75043 | 34875 ft | 489 kts | 138° |
| 2026-04-24 19:52 | 6.27731 | 99.82333 | 34850 ft | 486 kts | 134° |
| 2026-04-24 19:52 | 6.23037 | 99.87218 | 34858 ft | 484 kts | 135° |
| 2026-04-24 19:53 | 6.18330 | 99.92060 | 34839 ft | 483 kts | 135° |
| 2026-04-24 19:54 | 6.11307 | 99.99274 | 34838 ft | 482 kts | 135° |
| 2026-04-24 19:54 | 6.06601 | 100.04095 | 34837 ft | 483 kts | 135° |
| 2026-04-24 19:55 | 6.02673 | 100.08107 | 34840 ft | 484 kts | 135° |
| 2026-04-24 19:55 | 5.97178 | 100.13717 | 34840 ft | 485 kts | 135° |
| 2026-04-24 19:56 | 5.92443 | 100.18552 | 34842 ft | 485 kts | 135° |
| 2026-04-24 19:56 | 5.87696 | 100.23400 | 34840 ft | 486 kts | 135° |
| 2026-04-24 19:57 | 5.82969 | 100.28227 | 34846 ft | 486 kts | 135° |
| 2026-04-24 19:57 | 5.78212 | 100.33083 | 34845 ft | 486 kts | 135° |
| 2026-04-24 19:58 | 5.73488 | 100.37904 | 34846 ft | 486 kts | 135° |
| 2026-04-24 19:58 | 5.68740 | 100.42748 | 34839 ft | 486 kts | 135° |
| 2026-04-24 19:59 | 5.63989 | 100.47593 | 34837 ft | 486 kts | 135° |
| 2026-04-24 19:59 | 5.59276 | 100.52400 | 34839 ft | 485 kts | 135° |
| 2026-04-24 20:00 | 5.54519 | 100.57249 | 34843 ft | 485 kts | 135° |
| 2026-04-24 20:00 | 5.49807 | 100.62052 | 34846 ft | 484 kts | 135° |
| 2026-04-24 20:01 | 5.45070 | 100.66881 | 34854 ft | 483 kts | 135° |
| 2026-04-24 20:01 | 5.40366 | 100.71638 | 34864 ft | 481 kts | 139° |
| 2026-04-24 20:01 | 5.37687 | 100.73644 | 34863 ft | 479 kts | 150° |
| 2026-04-24 20:02 | 5.35715 | 100.74670 | 34876 ft | 479 kts | 156° |
| 2026-04-24 20:02 | 5.31503 | 100.76041 | 34872 ft | 478 kts | 170° |
| 2026-04-24 20:02 | 5.28205 | 100.76552 | 34883 ft | 478 kts | 172° |
| 2026-04-24 20:03 | 5.21626 | 100.77474 | 34875 ft | 481 kts | 172° |
| 2026-04-24 20:03 | 5.14968 | 100.78468 | 34876 ft | 483 kts | 171° |
| 2026-04-24 20:04 | 5.08302 | 100.79514 | 34868 ft | 485 kts | 171° |
| 2026-04-24 20:04 | 5.01667 | 100.80559 | 34869 ft | 486 kts | 171° |
| 2026-04-24 20:05 | 4.94957 | 100.81612 | 34870 ft | 486 kts | 171° |
| 2026-04-24 20:05 | 4.88260 | 100.82674 | 34865 ft | 486 kts | 171° |
| 2026-04-24 20:06 | 4.81607 | 100.83733 | 34871 ft | 485 kts | 171° |
| 2026-04-24 20:06 | 4.74927 | 100.84795 | 34863 ft | 485 kts | 171° |
| 2026-04-24 20:07 | 4.69389 | 100.85674 | 34870 ft | 484 kts | 171° |
| 2026-04-24 20:07 | 4.61650 | 100.86902 | 34866 ft | 482 kts | 171° |
| 2026-04-24 20:08 | 4.55044 | 100.87950 | 34863 ft | 481 kts | 171° |
| 2026-04-24 20:08 | 4.48443 | 100.89074 | 34859 ft | 480 kts | 166° |
| 2026-04-24 20:09 | 4.42134 | 100.91155 | 34858 ft | 479 kts | 155° |
| 2026-04-24 20:09 | 4.36130 | 100.94083 | 34867 ft | 479 kts | 154° |
| 2026-04-24 20:10 | 4.30137 | 100.97061 | 34859 ft | 480 kts | 154° |
| 2026-04-24 20:10 | 4.24207 | 100.99972 | 34841 ft | 469 kts | 154° |
| 2026-04-24 20:10 | 4.21274 | 101.01402 | 34491 ft | 466 kts | 154° |
| 2026-04-24 20:11 | 4.18359 | 101.02821 | 34048 ft | 462 kts | 154° |
| 2026-04-24 20:11 | 4.15468 | 101.04228 | 33556 ft | 458 kts | 154° |
| 2026-04-24 20:11 | 4.12613 | 101.05617 | 33053 ft | 455 kts | 154° |
| 2026-04-24 20:11 | 4.09814 | 101.06979 | 32570 ft | 451 kts | 154° |
| 2026-04-24 20:12 | 4.07000 | 101.08349 | 32100 ft | 447 kts | 154° |
| 2026-04-24 20:12 | 4.04198 | 101.09713 | 31630 ft | 443 kts | 154° |
| 2026-04-24 20:12 | 4.01426 | 101.11062 | 31159 ft | 440 kts | 154° |
| 2026-04-24 20:12 | 3.98713 | 101.12383 | 30723 ft | 437 kts | 154° |
| 2026-04-24 20:13 | 3.95980 | 101.13714 | 30241 ft | 434 kts | 154° |
| 2026-04-24 20:13 | 3.93261 | 101.15037 | 29755 ft | 432 kts | 154° |
| 2026-04-24 20:13 | 3.90565 | 101.16349 | 29220 ft | 429 kts | 153° |
| 2026-04-24 20:13 | 3.87886 | 101.17653 | 28742 ft | 425 kts | 153° |
| 2026-04-24 20:14 | 3.85263 | 101.18930 | 28283 ft | 422 kts | 153° |
| 2026-04-24 20:14 | 3.82621 | 101.20215 | 27825 ft | 419 kts | 153° |
| 2026-04-24 20:14 | 3.80032 | 101.21475 | 27362 ft | 416 kts | 153° |
| 2026-04-24 20:14 | 3.77442 | 101.22763 | 26922 ft | 412 kts | 150° |
| 2026-04-24 20:15 | 3.75006 | 101.24253 | 26519 ft | 407 kts | 144° |
| 2026-04-24 20:15 | 3.72696 | 101.25879 | 26135 ft | 402 kts | 143° |
| 2026-04-24 20:15 | 3.70450 | 101.27475 | 25767 ft | 399 kts | 143° |
| 2026-04-24 20:15 | 3.68190 | 101.29083 | 25385 ft | 397 kts | 143° |
| 2026-04-24 20:16 | 3.65937 | 101.30680 | 25014 ft | 397 kts | 143° |
| 2026-04-24 20:16 | 3.63662 | 101.32288 | 24643 ft | 397 kts | 143° |
| 2026-04-24 20:16 | 3.61428 | 101.33862 | 24247 ft | 397 kts | 143° |
| 2026-04-24 20:16 | 3.59162 | 101.35457 | 23872 ft | 397 kts | 143° |
| 2026-04-24 20:17 | 3.56893 | 101.37052 | 23495 ft | 396 kts | 143° |
| 2026-04-24 20:17 | 3.52411 | 101.40199 | 22661 ft | 392 kts | 143° |
| 2026-04-24 20:17 | 3.50189 | 101.41758 | 22275 ft | 388 kts | 143° |
| 2026-04-24 20:18 | 3.48724 | 101.42787 | 22024 ft | 384 kts | 143° |
| 2026-04-24 20:18 | 3.45837 | 101.44813 | 21540 ft | 378 kts | 143° |
| 2026-04-24 20:18 | 3.43692 | 101.46319 | 21172 ft | 374 kts | 143° |
| 2026-04-24 20:18 | 3.41567 | 101.47812 | 20819 ft | 371 kts | 143° |
| 2026-04-24 20:19 | 3.39461 | 101.49289 | 20475 ft | 368 kts | 143° |
| 2026-04-24 20:19 | 3.37366 | 101.50758 | 20125 ft | 365 kts | 143° |
| 2026-04-24 20:19 | 3.35322 | 101.52193 | 19778 ft | 362 kts | 143° |
| 2026-04-24 20:19 | 3.33260 | 101.53641 | 19443 ft | 360 kts | 143° |
| 2026-04-24 20:20 | 3.31201 | 101.55085 | 19080 ft | 359 kts | 143° |
| 2026-04-24 20:20 | 3.29157 | 101.56520 | 18732 ft | 358 kts | 143° |
| 2026-04-24 20:20 | 3.27121 | 101.57950 | 18388 ft | 356 kts | 143° |
| 2026-04-24 20:20 | 3.25115 | 101.59360 | 18054 ft | 355 kts | 142° |
| 2026-04-24 20:21 | 3.23092 | 101.60780 | 17639 ft | 353 kts | 143° |
| 2026-04-24 20:21 | 3.21079 | 101.62191 | 17327 ft | 350 kts | 143° |
| 2026-04-24 20:21 | 3.19085 | 101.63587 | 16978 ft | 349 kts | 143° |
| 2026-04-24 20:21 | 3.17123 | 101.64962 | 16642 ft | 347 kts | 143° |
| 2026-04-24 20:22 | 3.15145 | 101.66352 | 16307 ft | 346 kts | 143° |
| 2026-04-24 20:22 | 3.13172 | 101.67741 | 15982 ft | 346 kts | 143° |
| 2026-04-24 20:22 | 3.11193 | 101.69130 | 15657 ft | 345 kts | 143° |
| 2026-04-24 20:22 | 3.09255 | 101.70492 | 15325 ft | 342 kts | 143° |
| 2026-04-24 20:23 | 3.07304 | 101.71856 | 14999 ft | 340 kts | 143° |
| 2026-04-24 20:23 | 3.05367 | 101.73212 | 14661 ft | 338 kts | 143° |
| 2026-04-24 20:23 | 3.03441 | 101.74565 | 14350 ft | 338 kts | 143° |
| 2026-04-24 20:23 | 3.01540 | 101.75898 | 14026 ft | 337 kts | 143° |
| 2026-04-24 20:24 | 3.00246 | 101.76801 | 13828 ft | 335 kts | 143° |
| 2026-04-24 20:24 | 2.97711 | 101.78579 | 13336 ft | 334 kts | 143° |
| 2026-04-24 20:24 | 2.95818 | 101.79908 | 12994 ft | 329 kts | 143° |
| 2026-04-24 20:24 | 2.93959 | 101.81214 | 12692 ft | 324 kts | 143° |
| 2026-04-24 20:25 | 2.92114 | 101.82510 | 12378 ft | 322 kts | 143° |
| 2026-04-24 20:25 | 2.90304 | 101.83779 | 12071 ft | 320 kts | 144° |
| 2026-04-24 20:25 | 2.88489 | 101.85051 | 11848 ft | 315 kts | 144° |
| 2026-04-24 20:25 | 2.86681 | 101.86308 | 11608 ft | 317 kts | 146° |
| 2026-04-24 20:26 | 2.84691 | 101.87304 | 11315 ft | 323 kts | 160° |
| 2026-04-24 20:26 | 2.82562 | 101.87965 | 11057 ft | 324 kts | 162° |
| 2026-04-24 20:26 | 2.80404 | 101.88601 | 10720 ft | 321 kts | 162° |
| 2026-04-24 20:26 | 2.78272 | 101.89224 | 10437 ft | 315 kts | 162° |
| 2026-04-24 20:27 | 2.76183 | 101.89845 | 10116 ft | 311 kts | 162° |
| 2026-04-24 20:27 | 2.74134 | 101.90465 | 9893 ft | 302 kts | 162° |
| 2026-04-24 20:27 | 2.72164 | 101.91066 | 9775 ft | 297 kts | 162° |
| 2026-04-24 20:27 | 2.70207 | 101.91658 | 9616 ft | 290 kts | 162° |
| 2026-04-24 20:28 | 2.68262 | 101.92249 | 9021 ft | 296 kts | 162° |
| 2026-04-24 20:28 | 2.66302 | 101.92851 | 8662 ft | 292 kts | 162° |
| 2026-04-24 20:28 | 2.64380 | 101.93438 | 8420 ft | 284 kts | 162° |
| 2026-04-24 20:28 | 2.62496 | 101.94013 | 8089 ft | 281 kts | 162° |
| 2026-04-24 20:29 | 2.61263 | 101.94389 | 7899 ft | 277 kts | 162° |
| 2026-04-24 20:29 | 2.58846 | 101.95126 | 7547 ft | 271 kts | 162° |
| 2026-04-24 20:29 | 2.57050 | 101.95675 | 7287 ft | 267 kts | 162° |
| 2026-04-24 20:29 | 2.55292 | 101.96203 | 7025 ft | 258 kts | 165° |
| 2026-04-24 20:30 | 2.53564 | 101.96228 | 6786 ft | 249 kts | 195° |
| 2026-04-24 20:30 | 2.52071 | 101.95428 | 6573 ft | 241 kts | 219° |
| 2026-04-24 20:30 | 2.50979 | 101.94201 | 6376 ft | 233 kts | 233° |
| 2026-04-24 20:30 | 2.50059 | 101.92859 | 6120 ft | 234 kts | 235° |
| 2026-04-24 20:31 | 2.49223 | 101.91487 | 5837 ft | 225 kts | 249° |
| 2026-04-24 20:31 | 2.49136 | 101.90012 | 5653 ft | 208 kts | 289° |
| 2026-04-24 20:31 | 2.49972 | 101.88900 | 5462 ft | 200 kts | 326° |
| 2026-04-24 20:31 | 2.51128 | 101.88120 | 5303 ft | 206 kts | 327° |
| 2026-04-24 20:32 | 2.52329 | 101.87329 | 5104 ft | 207 kts | 328° |
| 2026-04-24 20:32 | 2.53544 | 101.86544 | 4847 ft | 206 kts | 328° |
| 2026-04-24 20:32 | 2.54727 | 101.85761 | 4557 ft | 200 kts | 328° |
| 2026-04-24 20:32 | 2.55856 | 101.85006 | 4334 ft | 196 kts | 328° |
| 2026-04-24 20:33 | 2.56996 | 101.84241 | 4077 ft | 199 kts | 327° |
| 2026-04-24 20:33 | 2.58157 | 101.83461 | 3828 ft | 202 kts | 328° |
| 2026-04-24 20:33 | 2.59337 | 101.82665 | 3578 ft | 204 kts | 328° |
| 2026-04-24 20:33 | 2.60511 | 101.81874 | 3300 ft | 203 kts | 328° |
| 2026-04-24 20:34 | 2.61657 | 101.81101 | 3040 ft | 198 kts | 328° |
| 2026-04-24 20:34 | 2.62783 | 101.80341 | 2784 ft | 193 kts | 328° |
| 2026-04-24 20:34 | 2.63899 | 101.79591 | 2572 ft | 196 kts | 328° |
| 2026-04-24 20:34 | 2.64664 | 101.79074 | 2375 ft | 193 kts | 329° |
| 2026-04-24 20:35 | 2.65760 | 101.78336 | 2131 ft | 193 kts | 329° |
| 2026-04-24 20:35 | 2.66869 | 101.77588 | 1918 ft | 191 kts | 328° |
| 2026-04-24 20:35 | 2.68311 | 101.76607 | 1576 ft | 187 kts | 326° |
| 2026-04-24 20:35 | 2.69013 | 101.76107 | 1385 ft | 177 kts | 328° |
| 2026-04-24 20:36 | 2.70026 | 101.75457 | 1214 ft | 171 kts | 328° |
| 2026-04-24 20:36 | 2.70999 | 101.74807 | 973 ft | 167 kts | 327° |
| 2026-04-24 20:36 | 2.71955 | 101.74160 | 774 ft | 164 kts | 327° |
| 2026-04-24 20:36 | 2.72886 | 101.73532 | 575 ft | 159 kts | 326° |
| 2026-04-24 20:37 | 2.73794 | 101.72922 | 365 ft | 156 kts | 325° |
| 2026-04-24 20:37 | 2.74683 | 101.72303 | 138 ft | 156 kts | 326° |
| 2026-04-24 20:37 | 2.75543 | 101.71727 | 67 ft | 134 kts | 325° |
| 2026-04-24 20:37 | 2.76185 | 101.71301 | 65 ft | 84 kts | 326° |
| 2026-04-24 20:38 | 2.76587 | 101.71033 | 63 ft | 67 kts | 327° |
| 2026-04-24 20:38 | 2.76770 | 101.70905 | 62 ft | 17 kts | 320° |
| 2026-04-24 20:38 | 2.76851 | 101.70815 | 64 ft | 17 kts | 307° |
| 2026-04-24 20:38 | 2.76905 | 101.70719 | 63 ft | 7 kts | 295° |
| 2026-04-24 20:39 | 2.76915 | 101.70697 | 60 ft | 4 kts | 294° |
| 2026-04-24 20:39 | 2.76922 | 101.70670 | 62 ft | 4 kts | 274° |
| 2026-04-24 20:39 | 2.76914 | 101.70642 | 65 ft | 4 kts | 240° |
| 2026-04-24 20:39 | 2.76891 | 101.70625 | 62 ft | 4 kts | 204° |
| 2026-04-24 20:40 | 2.76860 | 101.70625 | 63 ft | 5 kts | 166° |
| 2026-04-24 20:40 | 2.76827 | 101.70643 | 62 ft | 6 kts | 148° |
| 2026-04-24 20:40 | 2.76775 | 101.70677 | 64 ft | 11 kts | 145° |
| 2026-04-24 20:40 | 2.76713 | 101.70720 | 64 ft | 11 kts | 147° |
| 2026-04-24 20:41 | 2.76650 | 101.70762 | 63 ft | 11 kts | 146° |
| 2026-04-24 20:41 | 2.76587 | 101.70804 | 63 ft | 11 kts | 147° |
| 2026-04-24 20:41 | 2.76520 | 101.70848 | 61 ft | 14 kts | 146° |
| 2026-04-24 20:41 | 2.76412 | 101.70921 | 65 ft | 21 kts | 145° |
| 2026-04-24 20:42 | 2.76315 | 101.70984 | 60 ft | 12 kts | 150° |
| 2026-04-24 20:42 | 2.76215 | 101.71026 | 63 ft | 20 kts | 167° |
| 2026-04-24 20:42 | 2.76082 | 101.71051 | 67 ft | 17 kts | 166° |
| 2026-04-24 20:42 | 2.75975 | 101.71100 | 66 ft | 17 kts | 147° |
| 2026-04-24 20:43 | 2.75877 | 101.71166 | 66 ft | 17 kts | 146° |
| 2026-04-24 20:43 | 2.75779 | 101.71231 | 71 ft | 17 kts | 146° |
| 2026-04-24 20:43 | 2.75681 | 101.71297 | 67 ft | 17 kts | 146° |
| 2026-04-24 20:43 | 2.75584 | 101.71362 | 65 ft | 17 kts | 146° |
| 2026-04-24 20:44 | 2.75486 | 101.71429 | 68 ft | 17 kts | 146° |
| 2026-04-24 20:44 | 2.75389 | 101.71495 | 65 ft | 17 kts | 145° |
| 2026-04-24 20:44 | 2.75290 | 101.71560 | 70 ft | 17 kts | 146° |
| 2026-04-24 20:44 | 2.75192 | 101.71626 | 68 ft | 17 kts | 146° |
| 2026-04-24 20:45 | 2.75098 | 101.71688 | 66 ft | 15 kts | 147° |
| 2026-04-24 20:45 | 2.75012 | 101.71746 | 69 ft | 15 kts | 146° |
| 2026-04-24 20:45 | 2.74944 | 101.71786 | 83 ft | 10 kts | 165° |
| 2026-04-24 20:45 | 2.74894 | 101.71755 | 67 ft | 4 kts | 232° |
| 2026-04-24 20:46 | 2.74874 | 101.71729 | 68 ft | 5 kts | 234° |
| 2026-04-24 20:46 | 2.74853 | 101.71698 | 73 ft | 5 kts | 237° |
| 2026-04-24 20:46 | 2.74851 | 101.71678 | 70 ft | 2 kts | 282° |
| 2026-04-24 20:46 | 2.74858 | 101.71664 | 70 ft | 2 kts | 300° |
| 2026-04-24 20:47 | 2.74869 | 101.71651 | 68 ft | 3 kts | 310° |
| 2026-04-24 20:47 | 2.74883 | 101.71639 | 72 ft | 3 kts | 322° |
| 2026-04-24 20:47 | 2.74894 | 101.71631 | 68 ft | 0 kts | 323° |
| 2026-04-24 20:48 | 2.74895 | 101.71630 | 68 ft | 0 kts | 323° |
| 2026-04-24 20:48 | 2.74896 | 101.71629 | 68 ft | 0 kts | 323° |